sensor_id;sensor_type;location;lat;lon;timestamp;pressure;altitude;pressure_sealevel;temperature;humidity
53960;BME280;39866;48.638;-2.020;2023-11-18T00:02:03;101862.09;;;15.36;100.00
53960;BME280;39866;48.638;-2.020;2023-11-18T00:04:28;101861.38;;;15.29;100.00
53960;BME280;39866;48.638;-2.020;2023-11-18T00:06:53;101855.84;;;15.35;100.00
53960;BME280;39866;48.638;-2.020;2023-11-18T00:09:19;101849.41;;;15.41;100.00
53960;BME280;39866;48.638;-2.020;2023-11-18T00:11:45;101823.81;;;15.29;100.00
53960;BME280;39866;48.638;-2.020;2023-11-18T00:14:11;101824.44;;;15.39;100.00
53960;BME280;39866;48.638;-2.020;2023-11-18T00:16:36;101820.13;;;15.33;100.00
53960;BME280;39866;48.638;-2.020;2023-11-18T00:19:02;101807.72;;;15.29;100.00
53960;BME280;39866;48.638;-2.020;2023-11-18T00:21:29;101826.19;;;15.40;100.00
53960;BME280;39866;48.638;-2.020;2023-11-18T00:23:55;101822.81;;;15.33;100.00
53960;BME280;39866;48.638;-2.020;2023-11-18T00:26:21;101825.94;;;15.18;100.00
53960;BME280;39866;48.638;-2.020;2023-11-18T00:28:46;101826.97;;;15.14;100.00
53960;BME280;39866;48.638;-2.020;2023-11-18T00:31:12;101809.47;;;15.30;100.00
53960;BME280;39866;48.638;-2.020;2023-11-18T00:33:38;101819.97;;;15.38;100.00
53960;BME280;39866;48.638;-2.020;2023-11-18T00:36:03;101807.59;;;15.34;100.00
53960;BME280;39866;48.638;-2.020;2023-11-18T00:38:28;101804.97;;;15.32;100.00
53960;BME280;39866;48.638;-2.020;2023-11-18T00:40:53;101809.31;;;15.36;100.00
53960;BME280;39866;48.638;-2.020;2023-11-18T00:43:19;101794.56;;;15.22;100.00
53960;BME280;39866;48.638;-2.020;2023-11-18T00:45:44;101803.22;;;15.30;100.00
53960;BME280;39866;48.638;-2.020;2023-11-18T00:48:09;101793.69;;;15.21;100.00
53960;BME280;39866;48.638;-2.020;2023-11-18T00:50:35;101795.19;;;15.30;100.00
53960;BME280;39866;48.638;-2.020;2023-11-18T00:53:00;101788.16;;;15.26;100.00
53960;BME280;39866;48.638;-2.020;2023-11-18T00:55:25;101786.41;;;15.25;100.00
53960;BME280;39866;48.638;-2.020;2023-11-18T00:57:50;101784.44;;;15.31;100.00
53960;BME280;39866;48.638;-2.020;2023-11-18T01:00:16;101787.00;;;15.34;100.00
53960;BME280;39866;48.638;-2.020;2023-11-18T01:02:44;101777.09;;;15.36;100.00
53960;BME280;39866;48.638;-2.020;2023-11-18T01:05:10;101767.16;;;15.40;100.00
53960;BME280;39866;48.638;-2.020;2023-11-18T01:07:36;101762.72;;;15.39;100.00
53960;BME280;39866;48.638;-2.020;2023-11-18T01:10:01;101759.13;;;15.39;100.00
53960;BME280;39866;48.638;-2.020;2023-11-18T01:12:27;101754.44;;;15.45;100.00
53960;BME280;39866;48.638;-2.020;2023-11-18T01:14:52;101752.84;;;15.40;100.00
53960;BME280;39866;48.638;-2.020;2023-11-18T01:17:17;101745.59;;;15.43;100.00
53960;BME280;39866;48.638;-2.020;2023-11-18T01:19:43;101731.31;;;15.41;100.00
53960;BME280;39866;48.638;-2.020;2023-11-18T01:22:09;101736.63;;;15.43;100.00
53960;BME280;39866;48.638;-2.020;2023-11-18T01:24:34;101727.84;;;15.39;100.00
53960;BME280;39866;48.638;-2.020;2023-11-18T01:27:00;101733.03;;;15.44;100.00
53960;BME280;39866;48.638;-2.020;2023-11-18T01:29:25;101735.91;;;15.38;100.00
53960;BME280;39866;48.638;-2.020;2023-11-18T01:31:51;101719.09;;;15.32;100.00
53960;BME280;39866;48.638;-2.020;2023-11-18T01:34:17;101707.13;;;15.43;100.00
53960;BME280;39866;48.638;-2.020;2023-11-18T01:36:46;101699.84;;;15.46;100.00
53960;BME280;39866;48.638;-2.020;2023-11-18T01:39:11;101709.69;;;15.46;100.00
53960;BME280;39866;48.638;-2.020;2023-11-18T01:41:38;101688.03;;;15.52;100.00
53960;BME280;39866;48.638;-2.020;2023-11-18T01:44:03;101697.63;;;15.59;100.00
53960;BME280;39866;48.638;-2.020;2023-11-18T01:46:29;101696.50;;;15.40;100.00
53960;BME280;39866;48.638;-2.020;2023-11-18T01:48:54;101695.63;;;15.39;100.00
53960;BME280;39866;48.638;-2.020;2023-11-18T01:51:20;101684.75;;;15.44;100.00
53960;BME280;39866;48.638;-2.020;2023-11-18T01:53:48;101694.28;;;15.52;100.00
53960;BME280;39866;48.638;-2.020;2023-11-18T01:56:15;101688.66;;;15.33;100.00
53960;BME280;39866;48.638;-2.020;2023-11-18T01:58:40;101678.28;;;15.49;100.00
53960;BME280;39866;48.638;-2.020;2023-11-18T02:01:07;101686.22;;;15.52;100.00
53960;BME280;39866;48.638;-2.020;2023-11-18T02:03:36;101662.09;;;15.51;100.00
53960;BME280;39866;48.638;-2.020;2023-11-18T02:06:03;101669.25;;;15.52;100.00
53960;BME280;39866;48.638;-2.020;2023-11-18T02:08:32;101651.88;;;15.62;100.00
53960;BME280;39866;48.638;-2.020;2023-11-18T02:11:01;101662.47;;;15.68;100.00
53960;BME280;39866;48.638;-2.020;2023-11-18T02:13:31;101659.31;;;15.54;100.00
53960;BME280;39866;48.638;-2.020;2023-11-18T02:15:58;101670.78;;;15.59;100.00
53960;BME280;39866;48.638;-2.020;2023-11-18T02:18:26;101655.69;;;15.55;100.00
53960;BME280;39866;48.638;-2.020;2023-11-18T02:20:56;101651.75;;;15.67;100.00
53960;BME280;39866;48.638;-2.020;2023-11-18T02:23:23;101652.91;;;15.58;100.00
53960;BME280;39866;48.638;-2.020;2023-11-18T02:25:48;101648.91;;;15.71;100.00
53960;BME280;39866;48.638;-2.020;2023-11-18T02:28:14;101642.66;;;15.71;100.00
53960;BME280;39866;48.638;-2.020;2023-11-18T02:30:40;101649.03;;;15.68;100.00
53960;BME280;39866;48.638;-2.020;2023-11-18T02:33:17;101658.66;;;15.74;100.00
53960;BME280;39866;48.638;-2.020;2023-11-18T02:35:48;101644.25;;;15.76;100.00
53960;BME280;39866;48.638;-2.020;2023-11-18T02:38:18;101655.28;;;15.69;100.00
53960;BME280;39866;48.638;-2.020;2023-11-18T02:40:44;101633.69;;;15.72;100.00
53960;BME280;39866;48.638;-2.020;2023-11-18T02:43:10;101636.13;;;15.78;100.00
53960;BME280;39866;48.638;-2.020;2023-11-18T02:45:36;101631.81;;;15.74;100.00
53960;BME280;39866;48.638;-2.020;2023-11-18T02:48:02;101635.59;;;15.68;100.00
53960;BME280;39866;48.638;-2.020;2023-11-18T02:50:28;101620.31;;;15.70;100.00
53960;BME280;39866;48.638;-2.020;2023-11-18T02:52:54;101611.31;;;15.71;100.00
53960;BME280;39866;48.638;-2.020;2023-11-18T02:55:19;101612.75;;;15.81;100.00
53960;BME280;39866;48.638;-2.020;2023-11-18T02:57:47;101611.16;;;15.76;100.00
53960;BME280;39866;48.638;-2.020;2023-11-18T03:00:12;101596.75;;;15.78;100.00
53960;BME280;39866;48.638;-2.020;2023-11-18T03:02:44;101609.88;;;15.86;100.00
53960;BME280;39866;48.638;-2.020;2023-11-18T03:05:11;101607.72;;;15.72;100.00
53960;BME280;39866;48.638;-2.020;2023-11-18T03:07:40;101603.84;;;15.79;100.00
53960;BME280;39866;48.638;-2.020;2023-11-18T03:10:06;101596.28;;;15.91;100.00
53960;BME280;39866;48.638;-2.020;2023-11-18T03:12:36;101595.41;;;15.90;100.00
53960;BME280;39866;48.638;-2.020;2023-11-18T03:15:01;101602.66;;;15.88;100.00
53960;BME280;39866;48.638;-2.020;2023-11-18T03:17:27;101603.41;;;15.92;100.00
53960;BME280;39866;48.638;-2.020;2023-11-18T03:19:53;101609.78;;;15.89;100.00
53960;BME280;39866;48.638;-2.020;2023-11-18T03:22:18;101610.66;;;15.90;100.00
53960;BME280;39866;48.638;-2.020;2023-11-18T03:24:44;101597.81;;;15.98;100.00
53960;BME280;39866;48.638;-2.020;2023-11-18T03:27:09;101590.88;;;15.92;100.00
53960;BME280;39866;48.638;-2.020;2023-11-18T03:29:34;101575.91;;;15.85;100.00
53960;BME280;39866;48.638;-2.020;2023-11-18T03:31:59;101573.06;;;15.90;100.00
53960;BME280;39866;48.638;-2.020;2023-11-18T03:34:24;101569.16;;;15.98;100.00
53960;BME280;39866;48.638;-2.020;2023-11-18T03:36:50;101563.22;;;16.12;100.00
53960;BME280;39866;48.638;-2.020;2023-11-18T03:39:16;101568.97;;;16.03;100.00
53960;BME280;39866;48.638;-2.020;2023-11-18T03:41:41;101562.63;;;16.05;100.00
53960;BME280;39866;48.638;-2.020;2023-11-18T03:44:09;101563.38;;;16.09;100.00
53960;BME280;39866;48.638;-2.020;2023-11-18T03:46:35;101569.63;;;16.09;100.00
53960;BME280;39866;48.638;-2.020;2023-11-18T03:49:00;101564.06;;;16.14;100.00
53960;BME280;39866;48.638;-2.020;2023-11-18T03:51:26;101545.34;;;16.13;100.00
53960;BME280;39866;48.638;-2.020;2023-11-18T03:53:51;101544.88;;;16.01;100.00
53960;BME280;39866;48.638;-2.020;2023-11-18T03:56:16;101544.75;;;16.04;100.00
53960;BME280;39866;48.638;-2.020;2023-11-18T03:58:43;101556.38;;;16.05;100.00
53960;BME280;39866;48.638;-2.020;2023-11-18T04:01:08;101555.72;;;15.98;100.00
53960;BME280;39866;48.638;-2.020;2023-11-18T04:03:36;101561.59;;;16.08;100.00
53960;BME280;39866;48.638;-2.020;2023-11-18T04:06:01;101567.72;;;16.12;100.00
53960;BME280;39866;48.638;-2.020;2023-11-18T04:08:28;101564.28;;;16.08;100.00
53960;BME280;39866;48.638;-2.020;2023-11-18T04:10:53;101553.91;;;16.22;100.00
53960;BME280;39866;48.638;-2.020;2023-11-18T04:13:18;101566.28;;;16.26;100.00
53960;BME280;39866;48.638;-2.020;2023-11-18T04:15:44;101573.28;;;16.30;100.00
53960;BME280;39866;48.638;-2.020;2023-11-18T04:18:10;101567.03;;;16.30;100.00
53960;BME280;39866;48.638;-2.020;2023-11-18T04:20:35;101547.56;;;16.23;100.00
53960;BME280;39866;48.638;-2.020;2023-11-18T04:23:01;101561.69;;;16.28;100.00
53960;BME280;39866;48.638;-2.020;2023-11-18T04:25:27;101554.41;;;16.32;100.00
53960;BME280;39866;48.638;-2.020;2023-11-18T04:27:52;101563.31;;;16.32;100.00
53960;BME280;39866;48.638;-2.020;2023-11-18T04:30:18;101543.16;;;16.22;100.00
53960;BME280;39866;48.638;-2.020;2023-11-18T04:32:43;101556.22;;;16.31;100.00
53960;BME280;39866;48.638;-2.020;2023-11-18T04:35:08;101562.47;;;16.32;100.00
53960;BME280;39866;48.638;-2.020;2023-11-18T04:37:34;101556.09;;;16.34;100.00
53960;BME280;39866;48.638;-2.020;2023-11-18T04:40:03;101549.03;;;16.32;100.00
53960;BME280;39866;48.638;-2.020;2023-11-18T04:42:28;101549.09;;;16.30;100.00
53960;BME280;39866;48.638;-2.020;2023-11-18T04:44:55;101545.53;;;16.30;100.00
53960;BME280;39866;48.638;-2.020;2023-11-18T04:47:20;101538.22;;;16.33;100.00
53960;BME280;39866;48.638;-2.020;2023-11-18T04:49:45;101552.28;;;16.40;100.00
53960;BME280;39866;48.638;-2.020;2023-11-18T04:52:10;101548.28;;;16.50;100.00
53960;BME280;39866;48.638;-2.020;2023-11-18T04:54:35;101546.72;;;16.45;100.00
53960;BME280;39866;48.638;-2.020;2023-11-18T04:57:01;101541.41;;;16.43;100.00
53960;BME280;39866;48.638;-2.020;2023-11-18T04:59:26;101537.09;;;16.39;100.00
53960;BME280;39866;48.638;-2.020;2023-11-18T05:01:51;101533.53;;;16.39;100.00
53960;BME280;39866;48.638;-2.020;2023-11-18T05:04:18;101538.16;;;16.35;100.00
53960;BME280;39866;48.638;-2.020;2023-11-18T05:06:43;101517.59;;;16.34;100.00
53960;BME280;39866;48.638;-2.020;2023-11-18T05:09:08;101530.75;;;16.42;100.00
53960;BME280;39866;48.638;-2.020;2023-11-18T05:11:33;101527.75;;;16.49;100.00
53960;BME280;39866;48.638;-2.020;2023-11-18T05:13:59;101518.66;;;16.52;100.00
53960;BME280;39866;48.638;-2.020;2023-11-18T05:16:25;101515.16;;;16.50;100.00
53960;BME280;39866;48.638;-2.020;2023-11-18T05:18:51;101509.78;;;16.50;100.00
53960;BME280;39866;48.638;-2.020;2023-11-18T05:21:16;101524.56;;;16.62;100.00
53960;BME280;39866;48.638;-2.020;2023-11-18T05:23:41;101529.09;;;16.59;100.00
53960;BME280;39866;48.638;-2.020;2023-11-18T05:26:06;101512.16;;;16.57;100.00
53960;BME280;39866;48.638;-2.020;2023-11-18T05:28:32;101526.28;;;16.63;100.00
53960;BME280;39866;48.638;-2.020;2023-11-18T05:30:57;101526.28;;;16.63;100.00
53960;BME280;39866;48.638;-2.020;2023-11-18T05:33:29;101516.53;;;16.60;100.00
53960;BME280;39866;48.638;-2.020;2023-11-18T05:35:55;101511.97;;;16.62;100.00
53960;BME280;39866;48.638;-2.020;2023-11-18T05:38:20;101520.84;;;16.64;100.00
53960;BME280;39866;48.638;-2.020;2023-11-18T05:40:51;101502.66;;;16.71;100.00
53960;BME280;39866;48.638;-2.020;2023-11-18T05:43:25;101502.41;;;16.77;100.00
53960;BME280;39866;48.638;-2.020;2023-11-18T05:45:54;101512.03;;;16.82;100.00
53960;BME280;39866;48.638;-2.020;2023-11-18T05:48:38;101512.28;;;16.76;100.00
53960;BME280;39866;48.638;-2.020;2023-11-18T05:51:03;101515.81;;;16.78;100.00
53960;BME280;39866;48.638;-2.020;2023-11-18T05:53:29;101510.56;;;16.75;100.00
53960;BME280;39866;48.638;-2.020;2023-11-18T05:55:55;101509.47;;;16.79;100.00
53960;BME280;39866;48.638;-2.020;2023-11-18T05:58:20;101506.78;;;16.79;100.00
53960;BME280;39866;48.638;-2.020;2023-11-18T06:00:46;101508.53;;;16.80;100.00
53960;BME280;39866;48.638;-2.020;2023-11-18T06:03:11;101505.25;;;16.72;100.00
53960;BME280;39866;48.638;-2.020;2023-11-18T06:05:36;101514.53;;;16.87;100.00
53960;BME280;39866;48.638;-2.020;2023-11-18T06:08:02;101494.97;;;16.83;100.00
53960;BME280;39866;48.638;-2.020;2023-11-18T06:10:27;101464.75;;;16.77;100.00
53960;BME280;39866;48.638;-2.020;2023-11-18T06:12:53;101466.66;;;16.75;100.00
53960;BME280;39866;48.638;-2.020;2023-11-18T06:15:19;101459.25;;;16.80;100.00
53960;BME280;39866;48.638;-2.020;2023-11-18T06:17:47;101473.69;;;16.77;100.00
53960;BME280;39866;48.638;-2.020;2023-11-18T06:20:13;101475.19;;;16.84;100.00
53960;BME280;39866;48.638;-2.020;2023-11-18T06:22:39;101456.25;;;16.88;100.00
53960;BME280;39866;48.638;-2.020;2023-11-18T06:25:05;101446.16;;;16.93;100.00
53960;BME280;39866;48.638;-2.020;2023-11-18T06:27:32;101445.06;;;16.97;100.00
53960;BME280;39866;48.638;-2.020;2023-11-18T06:29:57;101461.94;;;17.00;100.00
53960;BME280;39866;48.638;-2.020;2023-11-18T06:32:22;101473.47;;;17.04;100.00
53960;BME280;39866;48.638;-2.020;2023-11-18T06:34:50;101468.16;;;17.02;100.00
53960;BME280;39866;48.638;-2.020;2023-11-18T06:37:16;101453.13;;;16.97;100.00
53960;BME280;39866;48.638;-2.020;2023-11-18T06:39:42;101452.59;;;16.89;100.00
53960;BME280;39866;48.638;-2.020;2023-11-18T06:42:09;101446.16;;;16.93;100.00
53960;BME280;39866;48.638;-2.020;2023-11-18T06:44:36;101453.00;;;17.00;100.00
53960;BME280;39866;48.638;-2.020;2023-11-18T06:47:01;101450.97;;;17.05;100.00
53960;BME280;39866;48.638;-2.020;2023-11-18T06:49:27;101452.59;;;17.09;100.00
53960;BME280;39866;48.638;-2.020;2023-11-18T06:51:54;101453.25;;;17.14;100.00
53960;BME280;39866;48.638;-2.020;2023-11-18T06:54:20;101462.56;;;17.07;100.00
53960;BME280;39866;48.638;-2.020;2023-11-18T06:56:45;101463.91;;;17.17;100.00
53960;BME280;39866;48.638;-2.020;2023-11-18T06:59:11;101466.44;;;17.20;100.00
53960;BME280;39866;48.638;-2.020;2023-11-18T07:01:39;101456.63;;;17.19;100.00
53960;BME280;39866;48.638;-2.020;2023-11-18T07:04:08;101457.56;;;17.18;100.00
53960;BME280;39866;48.638;-2.020;2023-11-18T07:06:34;101454.75;;;17.21;100.00
53960;BME280;39866;48.638;-2.020;2023-11-18T07:09:03;101451.09;;;17.22;100.00
53960;BME280;39866;48.638;-2.020;2023-11-18T07:11:28;101453.00;;;17.20;100.00
53960;BME280;39866;48.638;-2.020;2023-11-18T07:13:53;101452.88;;;17.23;100.00
53960;BME280;39866;48.638;-2.020;2023-11-18T07:16:22;101463.75;;;17.20;100.00
53960;BME280;39866;48.638;-2.020;2023-11-18T07:18:47;101462.69;;;17.24;100.00
53960;BME280;39866;48.638;-2.020;2023-11-18T07:21:12;101449.34;;;17.21;100.00
53960;BME280;39866;48.638;-2.020;2023-11-18T07:23:39;101462.47;;;17.29;100.00
53960;BME280;39866;48.638;-2.020;2023-11-18T07:26:04;101460.84;;;17.25;100.00
53960;BME280;39866;48.638;-2.020;2023-11-18T07:28:29;101474.09;;;17.29;100.00
53960;BME280;39866;48.638;-2.020;2023-11-18T07:30:56;101460.94;;;17.23;100.00
53960;BME280;39866;48.638;-2.020;2023-11-18T07:33:23;101459.66;;;17.32;100.00
53960;BME280;39866;48.638;-2.020;2023-11-18T07:35:48;101457.75;;;17.34;100.00
53960;BME280;39866;48.638;-2.020;2023-11-18T07:38:16;101459.44;;;17.37;100.00
53960;BME280;39866;48.638;-2.020;2023-11-18T07:40:42;101470.06;;;17.40;100.00
53960;BME280;39866;48.638;-2.020;2023-11-18T07:43:11;101478.16;;;17.40;100.00
53960;BME280;39866;48.638;-2.020;2023-11-18T07:45:36;101481.56;;;17.43;100.00
53960;BME280;39866;48.638;-2.020;2023-11-18T07:48:08;101477.72;;;17.49;100.00
53960;BME280;39866;48.638;-2.020;2023-11-18T07:50:34;101482.44;;;17.44;100.00
53960;BME280;39866;48.638;-2.020;2023-11-18T07:52:59;101470.00;;;17.41;100.00
53960;BME280;39866;48.638;-2.020;2023-11-18T07:55:24;101444.91;;;17.41;100.00
53960;BME280;39866;48.638;-2.020;2023-11-18T07:57:50;101446.63;;;17.42;100.00
53960;BME280;39866;48.638;-2.020;2023-11-18T08:00:15;101439.06;;;17.50;100.00
53960;BME280;39866;48.638;-2.020;2023-11-18T08:02:40;101442.38;;;17.56;100.00
53960;BME280;39866;48.638;-2.020;2023-11-18T08:05:05;101429.78;;;17.57;100.00
53960;BME280;39866;48.638;-2.020;2023-11-18T08:07:38;101446.38;;;17.48;100.00
53960;BME280;39866;48.638;-2.020;2023-11-18T08:10:03;101452.09;;;17.59;100.00
53960;BME280;39866;48.638;-2.020;2023-11-18T08:12:30;101454.59;;;17.64;100.00
53960;BME280;39866;48.638;-2.020;2023-11-18T08:14:55;101442.06;;;17.63;100.00
53960;BME280;39866;48.638;-2.020;2023-11-18T08:17:20;101440.31;;;17.62;100.00
53960;BME280;39866;48.638;-2.020;2023-11-18T08:19:45;101438.28;;;17.67;100.00
53960;BME280;39866;48.638;-2.020;2023-11-18T08:22:11;101443.28;;;17.76;100.00
53960;BME280;39866;48.638;-2.020;2023-11-18T08:24:36;101443.22;;;17.77;100.00
53960;BME280;39866;48.638;-2.020;2023-11-18T08:27:02;101457.41;;;17.81;100.00
53960;BME280;39866;48.638;-2.020;2023-11-18T08:29:28;101461.50;;;17.69;100.00
53960;BME280;39866;48.638;-2.020;2023-11-18T08:31:56;101457.13;;;17.67;100.00
53960;BME280;39866;48.638;-2.020;2023-11-18T08:34:22;101463.38;;;17.67;100.00
53960;BME280;39866;48.638;-2.020;2023-11-18T08:36:47;101460.22;;;17.78;100.00
53960;BME280;39866;48.638;-2.020;2023-11-18T08:39:12;101447.28;;;17.86;100.00
53960;BME280;39866;48.638;-2.020;2023-11-18T08:41:41;101461.75;;;17.83;100.00
53960;BME280;39866;48.638;-2.020;2023-11-18T08:44:08;101449.84;;;17.89;100.00
53960;BME280;39866;48.638;-2.020;2023-11-18T08:46:34;101445.19;;;17.93;100.00
53960;BME280;39866;48.638;-2.020;2023-11-18T08:48:59;101450.69;;;17.90;100.00
53960;BME280;39866;48.638;-2.020;2023-11-18T08:51:31;101454.13;;;17.93;100.00
53960;BME280;39866;48.638;-2.020;2023-11-18T08:53:58;101450.34;;;17.97;100.00
53960;BME280;39866;48.638;-2.020;2023-11-18T08:56:24;101450.88;;;18.04;100.00
53960;BME280;39866;48.638;-2.020;2023-11-18T08:58:59;101455.50;;;18.02;100.00
53960;BME280;39866;48.638;-2.020;2023-11-18T09:01:25;101456.09;;;18.09;100.00
53960;BME280;39866;48.638;-2.020;2023-11-18T09:03:53;101468.38;;;18.14;100.00
53960;BME280;39866;48.638;-2.020;2023-11-18T09:06:18;101456.41;;;18.20;100.00
53960;BME280;39866;48.638;-2.020;2023-11-18T09:08:47;101458.09;;;18.22;100.00
53960;BME280;39866;48.638;-2.020;2023-11-18T09:11:17;101447.91;;;18.10;100.00
53960;BME280;39866;48.638;-2.020;2023-11-18T09:13:43;101453.66;;;18.21;100.00
53960;BME280;39866;48.638;-2.020;2023-11-18T09:16:10;101438.97;;;18.10;100.00
53960;BME280;39866;48.638;-2.020;2023-11-18T09:18:36;101428.41;;;18.05;100.00
53960;BME280;39866;48.638;-2.020;2023-11-18T09:21:04;101414.28;;;18.00;100.00
53960;BME280;39866;48.638;-2.020;2023-11-18T09:23:31;101396.69;;;17.93;100.00
53960;BME280;39866;48.638;-2.020;2023-11-18T09:26:05;101393.03;;;17.94;100.00
53960;BME280;39866;48.638;-2.020;2023-11-18T09:28:33;101397.81;;;18.06;100.00
53960;BME280;39866;48.638;-2.020;2023-11-18T09:31:00;101416.22;;;18.15;100.00
53960;BME280;39866;48.638;-2.020;2023-11-18T09:33:28;101401.72;;;18.18;100.00
53960;BME280;39866;48.638;-2.020;2023-11-18T09:35:57;101409.22;;;18.11;100.00
53960;BME280;39866;48.638;-2.020;2023-11-18T09:38:28;101408.00;;;18.18;100.00
53960;BME280;39866;48.638;-2.020;2023-11-18T09:40:54;101411.91;;;18.30;100.00
53960;BME280;39866;48.638;-2.020;2023-11-18T09:43:19;101404.78;;;18.29;100.00
53960;BME280;39866;48.638;-2.020;2023-11-18T09:45:47;101385.69;;;18.15;100.00
53960;BME280;39866;48.638;-2.020;2023-11-18T09:48:13;101379.69;;;18.10;100.00
53960;BME280;39866;48.638;-2.020;2023-11-18T09:50:42;101391.91;;;18.17;100.00
53960;BME280;39866;48.638;-2.020;2023-11-18T09:53:09;101397.78;;;18.25;100.00
53960;BME280;39866;48.638;-2.020;2023-11-18T09:55:43;101389.59;;;18.26;100.00
53960;BME280;39866;48.638;-2.020;2023-11-18T09:58:11;101391.19;;;18.30;100.00
53960;BME280;39866;48.638;-2.020;2023-11-18T10:00:40;101395.25;;;18.39;100.00
53960;BME280;39866;48.638;-2.020;2023-11-18T10:03:07;101397.84;;;18.41;100.00
53960;BME280;39866;48.638;-2.020;2023-11-18T10:05:33;101409.53;;;18.41;100.00
53960;BME280;39866;48.638;-2.020;2023-11-18T10:08:02;101400.00;;;18.34;100.00
53960;BME280;39866;48.638;-2.020;2023-11-18T10:10:30;101396.94;;;18.42;100.00
53960;BME280;39866;48.638;-2.020;2023-11-18T10:13:01;101394.13;;;18.43;100.00
53960;BME280;39866;48.638;-2.020;2023-11-18T10:15:29;101395.88;;;18.44;100.00
53960;BME280;39866;48.638;-2.020;2023-11-18T10:17:56;101391.22;;;18.48;100.00
53960;BME280;39866;48.638;-2.020;2023-11-18T10:20:47;101380.75;;;18.42;100.00
53960;BME280;39866;48.638;-2.020;2023-11-18T10:23:15;101383.59;;;18.39;100.00
53960;BME280;39866;48.638;-2.020;2023-11-18T10:25:48;101390.47;;;18.44;100.00
53960;BME280;39866;48.638;-2.020;2023-11-18T10:28:26;101382.41;;;18.44;100.00
53960;BME280;39866;48.638;-2.020;2023-11-18T10:31:13;101376.94;;;18.46;100.00
53960;BME280;39866;48.638;-2.020;2023-11-18T10:33:43;101375.50;;;18.56;100.00
53960;BME280;39866;48.638;-2.020;2023-11-18T10:36:29;101377.47;;;18.52;100.00
53960;BME280;39866;48.638;-2.020;2023-11-18T10:38:54;101372.81;;;18.56;100.00
53960;BME280;39866;48.638;-2.020;2023-11-18T10:41:22;101373.53;;;18.60;100.00
53960;BME280;39866;48.638;-2.020;2023-11-18T10:43:48;101369.88;;;18.61;100.00
53960;BME280;39866;48.638;-2.020;2023-11-18T10:46:13;101382.00;;;18.69;100.00
53960;BME280;39866;48.638;-2.020;2023-11-18T10:48:43;101366.50;;;18.74;100.00
53960;BME280;39866;48.638;-2.020;2023-11-18T10:51:12;101372.16;;;18.68;100.00
53960;BME280;39866;48.638;-2.020;2023-11-18T10:53:47;101379.28;;;18.69;100.00
53960;BME280;39866;48.638;-2.020;2023-11-18T10:56:28;101374.88;;;18.68;100.00
53960;BME280;39866;48.638;-2.020;2023-11-18T10:59:06;101366.66;;;18.71;100.00
53960;BME280;39866;48.638;-2.020;2023-11-18T11:01:33;101371.38;;;18.66;100.00
53960;BME280;39866;48.638;-2.020;2023-11-18T11:03:58;101367.38;;;18.75;100.00
53960;BME280;39866;48.638;-2.020;2023-11-18T11:06:24;101379.78;;;18.77;100.00
53960;BME280;39866;48.638;-2.020;2023-11-18T11:08:50;101390.38;;;18.82;100.00
53960;BME280;39866;48.638;-2.020;2023-11-18T11:11:17;101386.00;;;18.79;100.00
53960;BME280;39866;48.638;-2.020;2023-11-18T11:13:46;101377.75;;;18.83;100.00
53960;BME280;39866;48.638;-2.020;2023-11-18T11:16:12;101368.28;;;18.91;100.00
53960;BME280;39866;48.638;-2.020;2023-11-18T11:18:44;101351.56;;;18.85;100.00
53960;BME280;39866;48.638;-2.020;2023-11-18T11:21:13;101369.31;;;18.89;100.00
53960;BME280;39866;48.638;-2.020;2023-11-18T11:23:54;101363.75;;;18.92;100.00
53960;BME280;39866;48.638;-2.020;2023-11-18T11:26:43;101355.50;;;18.95;100.00
53960;BME280;39866;48.638;-2.020;2023-11-18T11:29:18;101367.25;;;18.94;100.00
53960;BME280;39866;48.638;-2.020;2023-11-18T11:32:11;101350.91;;;18.97;100.00
53960;BME280;39866;48.638;-2.020;2023-11-18T11:34:37;101369.94;;;18.94;100.00
53960;BME280;39866;48.638;-2.020;2023-11-18T11:37:07;101364.47;;;18.95;100.00
53960;BME280;39866;48.638;-2.020;2023-11-18T11:39:34;101368.28;;;18.91;100.00
53960;BME280;39866;48.638;-2.020;2023-11-18T11:42:01;101366.81;;;19.01;100.00
53960;BME280;39866;48.638;-2.020;2023-11-18T11:44:27;101377.34;;;18.90;100.00
53960;BME280;39866;48.638;-2.020;2023-11-18T11:46:58;101362.91;;;18.91;100.00
53960;BME280;39866;48.638;-2.020;2023-11-18T11:49:25;101364.31;;;18.98;100.00
53960;BME280;39866;48.638;-2.020;2023-11-18T11:54:23;101376.13;;;18.96;100.00
53960;BME280;39866;48.638;-2.020;2023-11-18T11:56:55;101377.56;;;19.03;100.00
53960;BME280;39866;48.638;-2.020;2023-11-18T12:00:06;101374.06;;;19.01;100.00
53960;BME280;39866;48.638;-2.020;2023-11-18T12:02:17;101376.28;;;18.93;100.00
53960;BME280;39866;48.638;-2.020;2023-11-18T12:04:46;101370.09;;;19.08;100.00
53960;BME280;39866;48.638;-2.020;2023-11-18T12:07:17;101358.88;;;19.16;100.00
53960;BME280;39866;48.638;-2.020;2023-11-18T12:09:44;101353.47;;;19.16;100.00
53960;BME280;39866;48.638;-2.020;2023-11-18T12:12:17;101349.66;;;19.20;100.00
53960;BME280;39866;48.638;-2.020;2023-11-18T12:14:55;101339.63;;;19.22;100.00
53960;BME280;39866;48.638;-2.020;2023-11-18T12:23:07;101312.31;;;19.28;100.00
53960;BME280;39866;48.638;-2.020;2023-11-18T12:25:48;101321.94;;;19.16;100.00
53960;BME280;39866;48.638;-2.020;2023-11-18T12:28:24;101319.41;;;19.13;100.00
53960;BME280;39866;48.638;-2.020;2023-11-18T12:30:51;101325.41;;;19.18;100.00
53960;BME280;39866;48.638;-2.020;2023-11-18T12:33:20;101330.16;;;19.15;100.00
53960;BME280;39866;48.638;-2.020;2023-11-18T12:43:15;101317.00;;;19.24;100.00
53960;BME280;39866;48.638;-2.020;2023-11-18T12:46:08;101304.28;;;19.26;100.00
53960;BME280;39866;48.638;-2.020;2023-11-18T12:48:41;101304.63;;;19.20;100.00